OTBH

Al Udeid Air Base

Airport
ICAO code
OTBH
IATA Code
IUD
Summary
ICAO Region
MID
ICAO Territory
Location

Al-Udeid, Ad Dawhah

Serving
Al-Udeid Air Base
Elevation
130 ft
Coordinates
25° 7' 1" N , 51° 18' 55" E
KCC
Metar
Observation
OTBH 071755Z 00000KT 9999 CLR 30/24 A2973 RMK AO2A SLP068 T03010240 10370 20301 PWINO FZRANO TSNO $
Station
Al Udeid
Date/Time
2022-10-07 17:55:00
Wind direction
Wind speed
00 kts
Lowest cloud amount
n/a
Temperature
30.1°C
Dew point
24°C
Humidity
69%
Weather condition
n/a

Al Udeid Air Base is a military base southwest of Doha, Qatar, also known as Abu Nakhlah Airport. It houses Qatari Air Force, U.S. Air Force, and Royal Air Force personnel and assets.

Climatology

Hot Desert Climate (Köppen climate classification BWh)

Runways

Designator Length Width Surface Rops
16/34 3750 45 ASP Yes/Yes

Airport map

Aerial View

SKYbrary Partners:

Safety knowledge contributed by: